createdAt,value
2023-03-14T00:02:25.359Z,2.60
2023-03-14T00:04:56.126Z,0.95
2023-03-14T00:07:26.283Z,2.45
2023-03-14T00:09:54.097Z,1.63
2023-03-14T00:12:21.595Z,2.95
2023-03-14T00:14:49.149Z,3.40
2023-03-14T00:17:16.685Z,2.47
2023-03-14T00:19:44.235Z,2.55
2023-03-14T00:22:11.748Z,1.83
2023-03-14T00:24:40.632Z,1.20
2023-03-14T00:27:08.196Z,1.95
2023-03-14T00:29:35.783Z,1.98
2023-03-14T00:32:03.370Z,1.05
2023-03-14T00:34:31.194Z,0.98
2023-03-14T00:36:59.019Z,0.85
2023-03-14T00:39:26.566Z,1.40
2023-03-14T00:41:55.516Z,2.70
2023-03-14T00:44:23.503Z,2.35
2023-03-14T00:46:51.504Z,1.33
2023-03-14T00:49:19.102Z,1.02
2023-03-14T00:51:46.638Z,1.60
2023-03-14T00:54:14.387Z,3.00
2023-03-14T00:56:42.049Z,1.85
2023-03-14T00:59:11.230Z,2.92
2023-03-14T01:01:40.324Z,0.82
2023-03-14T01:04:08.377Z,1.33
2023-03-14T01:06:36.235Z,2.65
2023-03-14T01:09:05.387Z,1.73
2023-03-14T01:11:34.799Z,2.13
2023-03-14T01:14:03.733Z,0.57
2023-03-14T01:16:33.885Z,1.58
2023-03-14T01:19:02.510Z,2.35
2023-03-14T01:21:32.563Z,1.55
2023-03-14T01:24:02.339Z,1.25
2023-03-14T01:26:32.577Z,1.20
2023-03-14T01:29:00.585Z,1.73
2023-03-14T01:31:30.105Z,1.60
2023-03-14T01:33:59.188Z,0.55
2023-03-14T01:36:26.867Z,1.20
2023-03-14T01:38:55.018Z,2.45
2023-03-14T01:41:26.555Z,2.58
2023-03-14T01:43:55.963Z,2.00
2023-03-14T01:46:39.874Z,1.05
2023-03-14T01:49:22.836Z,1.92
2023-03-14T01:54:36.240Z,2.63
2023-03-14T01:57:08.644Z,1.30
2023-03-14T01:59:37.452Z,2.67
2023-03-14T02:02:08.375Z,0.77
2023-03-14T02:04:39.077Z,2.20
2023-03-14T02:07:11.871Z,0.52
2023-03-14T02:09:45.862Z,4.63
2023-03-14T02:12:22.429Z,1.02
2023-03-14T02:15:11.334Z,2.65
2023-03-14T02:17:53.554Z,2.47
2023-03-14T02:20:49.412Z,1.30
2023-03-14T02:23:22.329Z,1.75
2023-03-14T02:25:57.226Z,1.45
2023-03-14T02:28:26.193Z,1.85
2023-03-14T02:30:57.793Z,1.33
2023-03-14T02:33:25.635Z,2.35
2023-03-14T02:35:55.886Z,1.23
2023-03-14T02:38:29.431Z,2.05
2023-03-14T02:40:59.122Z,1.77
2023-03-14T02:43:28.912Z,0.40
2023-03-14T02:46:03.718Z,1.98
2023-03-14T02:48:39.456Z,0.47
2023-03-14T02:55:22.349Z,3.75
2023-03-14T02:57:50.839Z,0.88
2023-03-14T03:00:21.634Z,1.88
2023-03-14T03:02:49.332Z,0.90
2023-03-14T03:09:30.461Z,1.00
2023-03-14T03:11:58.107Z,2.08
2023-03-14T03:14:28.204Z,2.40
2023-03-14T03:17:00.202Z,2.00
2023-03-14T03:19:27.823Z,1.77
2023-03-14T03:21:55.452Z,1.85
2023-03-14T03:24:23.011Z,2.30
2023-03-14T03:26:50.545Z,1.08
2023-03-14T03:29:18.182Z,1.85
2023-03-14T03:31:47.237Z,2.28
2023-03-14T03:34:16.614Z,3.05
2023-03-14T03:36:45.185Z,1.67
2023-03-14T03:39:13.814Z,1.63
2023-03-14T03:41:41.552Z,2.83
2023-03-14T03:44:09.730Z,0.95
2023-03-14T03:46:37.291Z,2.30
2023-03-14T03:49:05.037Z,1.85
2023-03-14T03:51:34.129Z,1.15
2023-03-14T03:54:01.838Z,1.55
2023-03-14T03:56:33.464Z,1.35
2023-03-14T03:59:01.446Z,2.47
2023-03-14T04:01:29.014Z,1.40
2023-03-14T04:03:59.705Z,1.40
2023-03-14T04:06:28.634Z,1.67
2023-03-14T04:09:00.541Z,1.45
2023-03-14T04:11:38.939Z,4.03
2023-03-14T04:14:29.710Z,2.58
2023-03-14T04:17:06.174Z,3.78
2023-03-14T04:19:33.779Z,1.17
2023-03-14T04:22:01.737Z,3.50
2023-03-14T04:24:36.173Z,2.15
2023-03-14T04:27:04.041Z,1.50
2023-03-14T04:29:33.037Z,1.83
2023-03-14T04:32:00.806Z,2.35
2023-03-14T04:34:28.375Z,1.55
2023-03-14T04:36:58.189Z,3.30
2023-03-14T04:39:31.967Z,2.67
2023-03-14T04:42:27.182Z,1.80
2023-03-14T04:44:54.745Z,2.88
2023-03-14T04:47:25.766Z,2.80
2023-03-14T04:49:54.443Z,2.42
2023-03-14T04:52:23.612Z,4.05
2023-03-14T04:54:51.186Z,2.15
2023-03-14T04:57:21.020Z,3.25
2023-03-14T04:59:50.685Z,2.28
2023-03-14T05:02:44.644Z,3.80
2023-03-14T05:05:20.987Z,1.88
2023-03-14T05:08:07.591Z,1.80
2023-03-14T05:10:59.325Z,2.30
2023-03-14T05:13:44.095Z,2.67
2023-03-14T05:16:22.868Z,3.40
2023-03-14T05:19:16.590Z,1.60
2023-03-14T05:22:07.311Z,1.10
2023-03-14T05:24:59.900Z,1.20
2023-03-14T05:27:54.915Z,1.05
2023-03-14T05:30:41.199Z,3.08
2023-03-14T05:33:35.611Z,1.83
2023-03-14T05:36:15.539Z,1.50
2023-03-14T05:38:57.103Z,1.40
2023-03-14T05:41:44.913Z,2.20
2023-03-14T05:44:26.680Z,0.60
2023-03-14T05:47:20.501Z,0.77
2023-03-14T05:50:04.281Z,1.48
2023-03-14T05:52:37.593Z,0.68
2023-03-14T05:55:24.569Z,1.75
2023-03-14T05:58:10.337Z,0.68
2023-03-14T06:00:56.465Z,1.88
2023-03-14T06:03:38.470Z,2.55
2023-03-14T06:06:08.889Z,1.27
2023-03-14T06:08:36.514Z,1.58
2023-03-14T06:11:05.739Z,2.38
2023-03-14T06:13:33.358Z,1.60
2023-03-14T06:16:00.971Z,1.52
2023-03-14T06:18:28.738Z,1.25
2023-03-14T06:20:58.288Z,1.23
2023-03-14T06:23:31.431Z,0.77
2023-03-14T06:26:00.208Z,2.92
2023-03-14T06:28:27.971Z,1.48
2023-03-14T06:31:01.198Z,1.65
2023-03-14T06:33:34.016Z,2.00
2023-03-14T06:36:02.460Z,3.83
2023-03-14T06:38:31.681Z,0.65
2023-03-14T06:41:05.264Z,1.90
2023-03-14T06:43:38.510Z,0.85
2023-03-14T06:46:08.010Z,2.25
2023-03-14T06:48:37.508Z,1.10
2023-03-14T06:51:07.704Z,1.35
2023-03-14T06:53:36.964Z,2.35
2023-03-14T06:56:04.895Z,2.78
2023-03-14T06:58:34.425Z,1.77
2023-03-14T07:01:04.914Z,1.75
2023-03-14T07:03:38.595Z,1.65
2023-03-14T07:06:07.568Z,1.77
2023-03-14T07:08:35.130Z,0.88
2023-03-14T07:11:04.571Z,1.23
2023-03-14T07:13:33.790Z,0.88
2023-03-14T07:16:09.249Z,1.40
2023-03-14T07:18:39.229Z,1.03
2023-03-14T07:21:07.967Z,2.72
2023-03-14T07:23:35.962Z,0.75
2023-03-14T07:26:05.453Z,0.32
2023-03-14T07:28:34.634Z,0.70
2023-03-14T07:31:08.347Z,1.17
2023-03-14T07:33:36.311Z,1.60
2023-03-14T07:36:04.912Z,0.88
2023-03-14T07:38:32.649Z,0.35
2023-03-14T07:41:13.043Z,0.47
2023-03-14T07:44:03.633Z,0.32
2023-03-14T07:46:31.299Z,1.67
2023-03-14T07:48:58.834Z,2.08
2023-03-14T07:51:26.519Z,0.60
2023-03-14T07:53:54.065Z,1.75
2023-03-14T07:56:22.924Z,4.40
2023-03-14T07:58:50.557Z,2.05
2023-03-14T08:01:18.283Z,0.68
2023-03-14T08:03:45.850Z,1.50
2023-03-14T08:06:13.394Z,0.85
2023-03-14T08:08:41.133Z,0.28
2023-03-14T08:11:10.316Z,0.70
2023-03-14T08:13:40.200Z,1.45
2023-03-14T08:16:08.461Z,0.80
2023-03-14T08:18:36.140Z,0.32
2023-03-14T08:21:04.102Z,0.40
2023-03-14T08:23:31.749Z,1.35
2023-03-14T08:25:59.323Z,0.32
2023-03-14T08:28:31.247Z,1.80
2023-03-14T08:31:00.742Z,0.55
2023-03-14T08:33:30.379Z,0.80
2023-03-14T08:36:00.158Z,0.85
2023-03-14T08:38:28.123Z,2.17
2023-03-14T08:40:59.871Z,0.55
2023-03-14T08:43:38.629Z,0.20
2023-03-14T08:46:07.934Z,0.57
2023-03-14T08:48:35.576Z,0.38
2023-03-14T08:51:07.125Z,0.98
2023-03-14T08:53:34.943Z,2.05
2023-03-14T08:56:02.540Z,1.33
2023-03-14T08:58:30.368Z,0.55
2023-03-14T09:00:58.042Z,0.45
2023-03-14T09:03:27.384Z,1.20
2023-03-14T09:05:54.952Z,1.50
2023-03-14T09:08:22.517Z,0.20
2023-03-14T09:10:50.068Z,2.92
2023-03-14T09:13:17.640Z,0.32
2023-03-14T09:15:45.184Z,1.50
2023-03-14T09:18:12.821Z,0.50
2023-03-14T09:20:42.944Z,0.85
2023-03-14T09:23:10.518Z,0.98
2023-03-14T09:25:38.235Z,0.65
2023-03-14T09:28:06.130Z,0.90
2023-03-14T09:30:33.843Z,0.22
2023-03-14T09:33:01.566Z,1.27
2023-03-14T09:35:30.152Z,1.40
2023-03-14T09:37:59.383Z,2.42
2023-03-14T09:40:35.680Z,2.15
2023-03-14T09:43:03.898Z,0.30
2023-03-14T09:45:35.589Z,0.00
2023-03-14T09:48:05.580Z,0.20
2023-03-14T09:50:39.645Z,0.32
2023-03-14T09:53:14.754Z,1.25
2023-03-14T09:55:44.565Z,0.52
2023-03-14T09:58:22.200Z,0.63
2023-03-14T10:00:51.742Z,1.13
2023-03-14T10:03:27.377Z,0.20
2023-03-14T10:05:56.795Z,0.17
2023-03-14T10:08:26.171Z,1.17
2023-03-14T10:10:54.589Z,0.35
2023-03-14T10:13:25.326Z,1.02
2023-03-14T10:15:55.760Z,0.77
2023-03-14T10:18:26.907Z,0.15
2023-03-14T10:21:05.609Z,0.95
2023-03-14T10:23:36.371Z,0.15
2023-03-14T10:26:10.713Z,0.30
2023-03-14T10:28:41.847Z,0.13
2023-03-14T10:31:09.675Z,0.55
2023-03-14T10:33:39.643Z,0.45
2023-03-14T10:36:19.487Z,0.28
2023-03-14T10:38:48.763Z,0.03
2023-03-14T10:41:20.639Z,1.23
2023-03-14T10:43:52.651Z,0.15
2023-03-14T10:46:22.485Z,0.28
2023-03-14T10:49:27.819Z,0.30
2023-03-14T10:51:55.423Z,0.10
2023-03-14T10:54:25.822Z,0.17
2023-03-14T10:57:00.076Z,1.05
2023-03-14T10:59:31.229Z,0.20
2023-03-14T11:02:05.440Z,0.63
2023-03-14T11:04:54.294Z,0.52
2023-03-14T11:07:29.125Z,0.20
2023-03-14T11:10:04.372Z,0.40
2023-03-14T11:12:43.668Z,0.28
2023-03-14T11:15:21.789Z,0.32
2023-03-14T11:18:02.855Z,0.55
2023-03-14T11:20:40.136Z,0.30
2023-03-14T11:23:15.885Z,0.55
2023-03-14T11:25:52.004Z,0.10
2023-03-14T11:28:24.818Z,0.28
2023-03-14T11:30:54.751Z,0.20
2023-03-14T11:33:26.459Z,0.22
2023-03-14T11:36:00.536Z,0.17
2023-03-14T11:38:35.805Z,0.20
2023-03-14T11:41:06.549Z,1.27
2023-03-14T11:43:40.960Z,0.20
2023-03-14T11:46:12.809Z,0.10
2023-03-14T11:48:45.571Z,0.93
2023-03-14T11:51:20.877Z,0.30
2023-03-14T11:53:55.786Z,0.35
2023-03-14T11:56:33.687Z,0.90
2023-03-14T11:59:06.718Z,0.52
2023-03-14T12:01:51.448Z,0.90
2023-03-14T12:04:32.366Z,0.88
2023-03-14T12:07:05.050Z,0.60
2023-03-14T12:09:35.338Z,1.05
2023-03-14T12:12:07.168Z,0.50
2023-03-14T12:14:37.525Z,1.20
2023-03-14T12:17:08.783Z,0.85
2023-03-14T12:19:39.590Z,0.38
2023-03-14T12:22:29.404Z,2.60
2023-03-14T12:25:02.680Z,3.25
2023-03-14T12:27:49.563Z,1.70
2023-03-14T12:30:28.255Z,2.67
2023-03-14T12:33:30.043Z,1.98
2023-03-14T12:36:06.747Z,2.85
2023-03-14T12:38:56.569Z,1.25
2023-03-14T12:41:28.618Z,1.10
2023-03-14T12:43:57.613Z,0.85
2023-03-14T12:46:27.519Z,0.82
2023-03-14T12:49:08.295Z,2.35
2023-03-14T12:51:38.194Z,3.03
2023-03-14T12:54:39.717Z,1.55
2023-03-14T12:57:23.420Z,2.42
2023-03-14T13:02:27.270Z,2.92
2023-03-14T13:05:04.244Z,1.25
2023-03-14T13:08:05.524Z,1.17
2023-03-14T13:10:43.724Z,2.33
2023-03-14T13:22:10.389Z,1.85
2023-03-14T13:25:09.336Z,1.73
2023-03-14T13:27:38.389Z,2.03
2023-03-14T13:30:21.752Z,1.38
2023-03-14T13:32:51.425Z,1.20
2023-03-14T13:35:22.028Z,1.48
2023-03-14T13:38:07.773Z,2.00
2023-03-14T13:40:39.868Z,0.45
2023-03-14T13:43:15.420Z,1.50
2023-03-14T13:45:50.195Z,1.63
2023-03-14T13:48:18.854Z,0.38
2023-03-14T13:50:51.005Z,1.08
2023-03-14T13:53:18.996Z,1.20
2023-03-14T13:55:47.963Z,4.68
2023-03-14T13:58:23.341Z,1.35
2023-03-14T14:01:06.917Z,0.80
2023-03-14T14:03:38.951Z,1.48
2023-03-14T14:06:11.455Z,1.77
2023-03-14T14:08:42.930Z,0.53
2023-03-14T14:11:20.113Z,1.35
2023-03-14T14:13:48.158Z,1.85
2023-03-14T14:16:18.672Z,2.58
2023-03-14T14:18:46.571Z,1.85
2023-03-14T14:21:15.723Z,1.17
2023-03-14T14:23:43.747Z,1.20
2023-03-14T14:26:18.798Z,4.63
2023-03-14T14:28:47.671Z,1.52
2023-03-14T14:31:21.965Z,2.20
2023-03-14T14:33:56.802Z,3.22
2023-03-14T14:36:28.396Z,2.55
2023-03-14T14:39:00.365Z,2.72
2023-03-14T14:41:35.688Z,2.30
2023-03-14T14:44:05.859Z,4.35
2023-03-14T14:46:35.833Z,0.93
2023-03-14T14:49:11.213Z,2.25
2023-03-14T14:51:43.861Z,2.33
2023-03-14T14:54:14.839Z,1.83
2023-03-14T14:56:48.683Z,5.00
2023-03-14T14:59:26.227Z,3.75
2023-03-14T15:01:58.307Z,2.40
2023-03-14T15:04:26.285Z,3.67
2023-03-14T15:06:54.778Z,4.72
2023-03-14T15:09:22.563Z,3.28
2023-03-14T15:11:52.019Z,1.17
2023-03-14T15:14:19.576Z,2.72
2023-03-14T15:16:47.311Z,2.92
2023-03-14T15:19:25.856Z,3.30
2023-03-14T15:21:54.338Z,2.28
2023-03-14T15:24:22.147Z,2.38
2023-03-14T15:26:51.115Z,5.00
2023-03-14T15:29:18.763Z,3.40
2023-03-14T15:31:46.550Z,4.32
2023-03-14T15:34:14.173Z,2.72
2023-03-14T15:36:41.798Z,3.95
2023-03-14T15:39:09.486Z,3.38
2023-03-14T15:41:37.144Z,2.17
2023-03-14T15:44:06.335Z,2.22
2023-03-14T15:46:33.934Z,4.53
2023-03-14T15:49:01.555Z,4.43
2023-03-14T15:51:29.092Z,2.95
2023-03-14T15:53:56.761Z,2.17
2023-03-14T15:56:25.917Z,5.78
2023-03-14T15:58:53.705Z,0.98
2023-03-14T16:01:22.614Z,3.47
2023-03-14T16:03:52.050Z,2.83
2023-03-14T16:06:19.580Z,3.40
2023-03-14T16:08:47.168Z,6.78
2023-03-14T16:11:19.460Z,5.05
2023-03-14T16:13:48.770Z,7.55
2023-03-14T16:16:16.640Z,3.28
2023-03-14T16:18:45.559Z,3.10
2023-03-14T16:21:14.959Z,1.98
2023-03-14T16:23:43.034Z,1.02
2023-03-14T16:26:12.991Z,1.85
2023-03-14T16:28:41.180Z,2.88
2023-03-14T16:31:10.432Z,2.83
2023-03-14T16:33:39.870Z,1.20
2023-03-14T16:36:12.184Z,2.50
2023-03-14T16:38:41.900Z,2.42
2023-03-14T16:41:12.644Z,1.52
2023-03-14T16:43:40.552Z,2.88
2023-03-14T16:46:12.214Z,3.97
2023-03-14T16:48:39.943Z,2.00
2023-03-14T16:51:09.694Z,2.35
2023-03-14T16:53:37.875Z,2.15
2023-03-14T16:56:05.996Z,2.80
2023-03-14T16:58:33.617Z,2.05
2023-03-14T17:01:10.497Z,1.55
2023-03-14T17:03:39.597Z,2.10
2023-03-14T17:06:11.388Z,3.00
2023-03-14T17:08:39.023Z,1.45
2023-03-14T17:11:08.090Z,1.73
2023-03-14T17:13:35.869Z,4.80
2023-03-14T17:16:03.897Z,9.20
2023-03-14T17:18:32.658Z,5.00
2023-03-14T17:21:01.471Z,2.42
2023-03-14T17:23:32.322Z,3.47
2023-03-14T17:26:00.268Z,3.35
2023-03-14T17:28:28.864Z,3.10
2023-03-14T17:31:07.697Z,6.20
2023-03-14T17:33:35.920Z,5.22
2023-03-14T17:36:04.102Z,5.65
2023-03-14T17:38:33.478Z,4.60
2023-03-14T17:41:01.083Z,3.85
2023-03-14T17:43:28.678Z,6.10
2023-03-14T17:46:00.764Z,5.75
2023-03-14T17:48:28.609Z,7.43
2023-03-14T17:51:00.020Z,12.90
2023-03-14T17:53:29.267Z,9.98
2023-03-14T17:55:58.589Z,9.43
2023-03-14T17:58:27.136Z,7.18
2023-03-14T18:00:54.874Z,5.82
2023-03-14T18:03:23.372Z,4.93
2023-03-14T18:05:51.056Z,6.55
2023-03-14T18:08:18.769Z,2.30
2023-03-14T18:10:46.381Z,2.75
2023-03-14T18:13:15.563Z,3.80
2023-03-14T18:15:43.320Z,1.80
2023-03-14T18:18:10.889Z,5.30
2023-03-14T18:20:38.474Z,3.50
2023-03-14T18:23:06.995Z,4.70
2023-03-14T18:25:34.566Z,3.40
2023-03-14T18:28:02.067Z,2.05
2023-03-14T18:30:31.331Z,4.25
2023-03-14T18:32:58.924Z,4.15
2023-03-14T18:35:26.560Z,1.88
2023-03-14T18:37:54.232Z,2.70
2023-03-14T18:40:21.816Z,4.88
2023-03-14T18:42:49.382Z,3.92
2023-03-14T18:45:17.057Z,2.33
2023-03-14T18:47:45.976Z,2.15
2023-03-14T18:50:13.741Z,4.50
2023-03-14T18:52:41.395Z,3.58
2023-03-14T18:55:09.726Z,3.97
2023-03-14T18:57:37.348Z,4.68
2023-03-14T19:00:07.108Z,4.15
2023-03-14T19:02:34.800Z,3.60
2023-03-14T19:05:03.842Z,4.20
2023-03-14T19:07:33.929Z,5.78
2023-03-14T19:10:01.731Z,1.60
2023-03-14T19:12:29.536Z,2.10
2023-03-14T19:14:57.173Z,5.32
2023-03-14T19:17:24.707Z,3.80
2023-03-14T19:19:53.877Z,2.20
2023-03-14T19:22:22.838Z,2.03
2023-03-14T19:24:50.663Z,2.42
2023-03-14T19:27:18.195Z,3.53
2023-03-14T19:29:45.760Z,5.88
2023-03-14T19:32:13.875Z,3.58
2023-03-14T19:34:44.123Z,4.13
2023-03-14T19:37:12.083Z,3.50
2023-03-14T19:39:41.008Z,3.38
2023-03-14T19:42:08.613Z,3.97
2023-03-14T19:44:36.162Z,4.40
2023-03-14T19:47:03.857Z,3.65
2023-03-14T19:49:31.941Z,3.83
2023-03-14T19:51:59.733Z,3.75
2023-03-14T19:54:27.254Z,3.70
2023-03-14T19:56:56.243Z,2.67
2023-03-14T19:59:23.832Z,2.95
2023-03-14T20:01:52.473Z,4.68
2023-03-14T20:04:20.316Z,3.33
2023-03-14T20:06:47.824Z,4.38
2023-03-14T20:09:15.385Z,8.40
2023-03-14T20:11:43.785Z,4.63
2023-03-14T20:14:14.588Z,4.43
2023-03-14T20:16:42.171Z,4.00
2023-03-14T20:19:12.044Z,2.42
2023-03-14T20:21:39.972Z,4.75
2023-03-14T20:24:07.942Z,2.17
2023-03-14T20:26:36.218Z,1.65
2023-03-14T20:29:06.771Z,4.38
2023-03-14T20:31:37.836Z,2.78
2023-03-14T20:34:05.791Z,2.75
2023-03-14T20:36:34.600Z,3.63
2023-03-14T20:39:02.291Z,3.97
2023-03-14T20:41:29.905Z,3.88
2023-03-14T20:43:57.430Z,2.10
2023-03-14T20:46:25.158Z,3.22
2023-03-14T20:48:54.094Z,4.70
2023-03-14T20:51:21.632Z,4.20
2023-03-14T20:53:49.162Z,2.97
2023-03-14T20:56:16.718Z,2.75
2023-03-14T20:58:45.536Z,2.17
2023-03-14T21:01:13.523Z,3.47
2023-03-14T21:03:41.693Z,3.13
2023-03-14T21:06:12.133Z,2.35
2023-03-14T21:08:41.322Z,2.60
2023-03-14T21:11:08.920Z,2.92
2023-03-14T21:13:36.520Z,2.83
2023-03-14T21:16:09.895Z,3.20
2023-03-14T21:18:41.014Z,2.90
2023-03-14T21:21:08.638Z,1.50
2023-03-14T21:23:37.775Z,2.17
2023-03-14T21:26:05.636Z,4.55
2023-03-14T21:28:33.617Z,3.15
2023-03-14T21:31:06.684Z,2.25
2023-03-14T21:33:37.292Z,2.80
2023-03-14T21:36:05.737Z,5.38
2023-03-14T21:38:34.022Z,1.75
2023-03-14T21:41:03.173Z,2.35
2023-03-14T21:43:30.828Z,3.45
2023-03-14T21:45:58.461Z,2.35
2023-03-14T21:48:27.101Z,4.32
2023-03-14T21:50:54.701Z,3.75
2023-03-14T21:53:22.301Z,2.67
2023-03-14T21:55:49.929Z,3.10
2023-03-14T21:58:18.883Z,4.78
2023-03-14T22:00:49.229Z,2.78
2023-03-14T22:03:17.259Z,4.82
2023-03-14T22:05:46.049Z,7.10
2023-03-14T22:08:20.633Z,5.72
2023-03-14T22:10:50.480Z,5.15
2023-03-14T22:13:21.072Z,7.60
2023-03-14T22:15:50.654Z,3.38
2023-03-14T22:18:19.808Z,4.90
2023-03-14T22:20:47.636Z,4.18
2023-03-14T22:23:15.963Z,3.80
2023-03-14T22:25:49.455Z,6.53
2023-03-14T22:28:20.179Z,4.55
2023-03-14T22:31:03.166Z,3.55
2023-03-14T22:33:31.910Z,6.30
2023-03-14T22:35:59.637Z,4.50
2023-03-14T22:38:27.223Z,5.57
2023-03-14T22:40:54.751Z,3.33
2023-03-14T22:43:23.652Z,2.90
2023-03-14T22:45:59.462Z,5.18
2023-03-14T22:48:27.086Z,2.63
2023-03-14T22:50:54.636Z,3.55
2023-03-14T22:53:22.194Z,5.55
2023-03-14T22:55:58.030Z,4.82
2023-03-14T22:58:27.609Z,4.35
2023-03-14T23:00:55.370Z,4.28
2023-03-14T23:03:23.204Z,4.05
2023-03-14T23:05:50.790Z,3.30
2023-03-14T23:08:18.384Z,3.15
2023-03-14T23:10:46.356Z,3.47
2023-03-14T23:13:14.494Z,5.47
2023-03-14T23:15:44.567Z,3.47
2023-03-14T23:18:13.486Z,6.07
2023-03-14T23:20:43.054Z,2.67
2023-03-14T23:23:13.658Z,3.28
2023-03-14T23:25:52.933Z,2.75
2023-03-14T23:28:22.931Z,2.92
2023-03-14T23:30:56.303Z,4.15
2023-03-14T23:35:52.148Z,3.17
2023-03-14T23:38:19.788Z,2.45
2023-03-14T23:40:47.431Z,2.38
2023-03-14T23:43:15.000Z,2.67
2023-03-14T23:45:42.657Z,4.97
2023-03-14T23:48:11.597Z,5.13
2023-03-14T23:50:39.180Z,4.53
2023-03-14T23:53:06.954Z,3.90
2023-03-14T23:55:35.365Z,4.18
2023-03-14T23:58:03.513Z,3.38
